KRBD

Dallas Executive Airport

Dallas, Texas, USA
METAR KRBD 140653Z AUTO 35015KT 10SM 08/05 A2979 RMK AO2 SLP086 T00780050 $
Observed Flight Rules
Dec-14 @ 06:53 UTC (48 minutes ago)
Wind Visibility
350° at 15 knots 10 miles
Temperatures Readings
Current 8°C / 46°F
Dewpoint 5°C / 41°F
Humidity 82%
Altimeter 29.79" Hg
Pressure 1008.6 hPa
Elevation 203
METAR KRBD 140653Z AUTO 35015KT 10SM 08/05 A2979 RMK AO2 SLP086 T00780050 $
Observed Flight Rules
Dec-14 @ 06:53 UTC
(48 minutes ago)
Wind Visibility
350° at 15 knots 10 miles
Temperature Dewpoint
8°C / 46°F 5°C / 41°F
Humidity Altimeter Pressure
82% 29.79" Hg 1008.6 hPa